sensor_id;sensor_type;location;lat;lon;timestamp;temperature;humidity
11009;DHT22;5557;51.670;7.788;2024-02-21T00:01:33;8.50;30.10
11009;DHT22;5557;51.670;7.788;2024-02-21T00:04:00;8.50;30.00
11009;DHT22;5557;51.670;7.788;2024-02-21T00:06:27;8.50;29.90
11009;DHT22;5557;51.670;7.788;2024-02-21T00:08:54;8.50;29.00
11009;DHT22;5557;51.670;7.788;2024-02-21T00:11:22;8.50;29.10
11009;DHT22;5557;51.670;7.788;2024-02-21T00:13:49;8.50;29.30
11009;DHT22;5557;51.670;7.788;2024-02-21T00:16:17;8.50;30.00
11009;DHT22;5557;51.670;7.788;2024-02-21T00:18:45;8.50;30.00
11009;DHT22;5557;51.670;7.788;2024-02-21T00:21:12;8.50;29.00
11009;DHT22;5557;51.670;7.788;2024-02-21T00:23:45;8.50;28.20
11009;DHT22;5557;51.670;7.788;2024-02-21T00:26:17;8.50;29.30
11009;DHT22;5557;51.670;7.788;2024-02-21T00:28:44;8.50;28.50
11009;DHT22;5557;51.670;7.788;2024-02-21T00:31:12;8.50;27.90
11009;DHT22;5557;51.670;7.788;2024-02-21T00:33:41;8.50;26.80
11009;DHT22;5557;51.670;7.788;2024-02-21T00:36:09;8.50;26.80
11009;DHT22;5557;51.670;7.788;2024-02-21T00:38:36;8.60;26.50
11009;DHT22;5557;51.670;7.788;2024-02-21T00:41:03;8.60;27.10
11009;DHT22;5557;51.670;7.788;2024-02-21T00:43:30;8.60;26.20
11009;DHT22;5557;51.670;7.788;2024-02-21T00:45:57;8.60;25.80
11009;DHT22;5557;51.670;7.788;2024-02-21T00:48:24;8.60;26.40
11009;DHT22;5557;51.670;7.788;2024-02-21T00:50:52;8.60;26.50
11009;DHT22;5557;51.670;7.788;2024-02-21T00:53:19;8.60;26.20
11009;DHT22;5557;51.670;7.788;2024-02-21T00:55:46;8.60;26.10
11009;DHT22;5557;51.670;7.788;2024-02-21T00:58:13;8.60;26.30
11009;DHT22;5557;51.670;7.788;2024-02-21T01:00:41;8.60;26.30
11009;DHT22;5557;51.670;7.788;2024-02-21T01:03:08;8.60;26.30
11009;DHT22;5557;51.670;7.788;2024-02-21T01:05:37;8.60;26.40
11009;DHT22;5557;51.670;7.788;2024-02-21T01:08:07;8.60;27.10
11009;DHT22;5557;51.670;7.788;2024-02-21T01:10:34;8.60;27.50
11009;DHT22;5557;51.670;7.788;2024-02-21T01:13:01;8.60;28.30
11009;DHT22;5557;51.670;7.788;2024-02-21T01:15:28;8.50;28.30
11009;DHT22;5557;51.670;7.788;2024-02-21T01:17:55;8.50;29.00
11009;DHT22;5557;51.670;7.788;2024-02-21T01:20:23;8.50;28.70
11009;DHT22;5557;51.670;7.788;2024-02-21T01:22:52;8.50;29.80
11009;DHT22;5557;51.670;7.788;2024-02-21T01:25:20;8.50;30.00
11009;DHT22;5557;51.670;7.788;2024-02-21T01:27:56;8.60;30.20
11009;DHT22;5557;51.670;7.788;2024-02-21T01:30:24;8.60;30.50
11009;DHT22;5557;51.670;7.788;2024-02-21T01:32:53;8.60;29.30
11009;DHT22;5557;51.670;7.788;2024-02-21T01:35:22;8.60;29.90
11009;DHT22;5557;51.670;7.788;2024-02-21T01:37:50;8.50;30.50
11009;DHT22;5557;51.670;7.788;2024-02-21T01:40:18;8.50;29.70
11009;DHT22;5557;51.670;7.788;2024-02-21T01:42:46;8.50;29.00
11009;DHT22;5557;51.670;7.788;2024-02-21T01:45:14;8.60;28.40
11009;DHT22;5557;51.670;7.788;2024-02-21T01:47:45;8.50;27.60
11009;DHT22;5557;51.670;7.788;2024-02-21T01:50:13;8.50;28.10
11009;DHT22;5557;51.670;7.788;2024-02-21T01:52:45;8.50;28.10
11009;DHT22;5557;51.670;7.788;2024-02-21T01:55:14;8.50;27.30
11009;DHT22;5557;51.670;7.788;2024-02-21T01:57:43;8.50;27.40
11009;DHT22;5557;51.670;7.788;2024-02-21T02:00:15;8.50;26.60
11009;DHT22;5557;51.670;7.788;2024-02-21T02:02:43;8.50;26.40
11009;DHT22;5557;51.670;7.788;2024-02-21T02:05:11;8.50;25.90
11009;DHT22;5557;51.670;7.788;2024-02-21T02:07:39;8.50;26.10
11009;DHT22;5557;51.670;7.788;2024-02-21T02:10:06;8.50;25.60
11009;DHT22;5557;51.670;7.788;2024-02-21T02:12:34;8.50;25.50
11009;DHT22;5557;51.670;7.788;2024-02-21T02:15:03;8.60;24.50
11009;DHT22;5557;51.670;7.788;2024-02-21T02:17:34;8.60;24.80
11009;DHT22;5557;51.670;7.788;2024-02-21T02:20:04;8.50;25.10
11009;DHT22;5557;51.670;7.788;2024-02-21T02:22:33;8.50;26.20
11009;DHT22;5557;51.670;7.788;2024-02-21T02:25:03;8.50;26.00
11009;DHT22;5557;51.670;7.788;2024-02-21T02:27:41;8.60;24.40
11009;DHT22;5557;51.670;7.788;2024-02-21T02:30:11;8.50;23.40
11009;DHT22;5557;51.670;7.788;2024-02-21T02:32:45;8.60;23.00
11009;DHT22;5557;51.670;7.788;2024-02-21T02:35:14;8.60;23.40
11009;DHT22;5557;51.670;7.788;2024-02-21T02:37:51;8.60;23.10
11009;DHT22;5557;51.670;7.788;2024-02-21T02:40:19;8.60;22.30
11009;DHT22;5557;51.670;7.788;2024-02-21T02:42:46;8.60;22.10
11009;DHT22;5557;51.670;7.788;2024-02-21T02:45:16;8.60;21.40
11009;DHT22;5557;51.670;7.788;2024-02-21T02:47:47;8.60;21.70
11009;DHT22;5557;51.670;7.788;2024-02-21T02:50:14;8.60;21.60
11009;DHT22;5557;51.670;7.788;2024-02-21T02:52:41;8.60;22.10
11009;DHT22;5557;51.670;7.788;2024-02-21T02:55:12;8.60;21.90
11009;DHT22;5557;51.670;7.788;2024-02-21T02:57:42;8.60;21.90
11009;DHT22;5557;51.670;7.788;2024-02-21T03:00:14;8.50;22.50
11009;DHT22;5557;51.670;7.788;2024-02-21T03:02:43;8.40;23.80
11009;DHT22;5557;51.670;7.788;2024-02-21T03:05:21;8.30;25.70
11009;DHT22;5557;51.670;7.788;2024-02-21T03:07:49;8.30;26.70
11009;DHT22;5557;51.670;7.788;2024-02-21T03:10:17;8.20;28.90
11009;DHT22;5557;51.670;7.788;2024-02-21T03:12:45;8.10;29.40
11009;DHT22;5557;51.670;7.788;2024-02-21T03:17:43;8.00;31.60
11009;DHT22;5557;51.670;7.788;2024-02-21T03:20:10;8.00;34.00
11009;DHT22;5557;51.670;7.788;2024-02-21T03:22:40;7.90;36.60
11009;DHT22;5557;51.670;7.788;2024-02-21T03:25:13;7.90;37.70
11009;DHT22;5557;51.670;7.788;2024-02-21T03:27:42;7.90;37.10
11009;DHT22;5557;51.670;7.788;2024-02-21T03:30:12;7.90;38.60
11009;DHT22;5557;51.670;7.788;2024-02-21T03:35:17;7.90;39.50
11009;DHT22;5557;51.670;7.788;2024-02-21T03:37:50;7.80;40.50
11009;DHT22;5557;51.670;7.788;2024-02-21T03:40:20;7.80;40.60
11009;DHT22;5557;51.670;7.788;2024-02-21T03:42:50;7.90;40.40
11009;DHT22;5557;51.670;7.788;2024-02-21T03:45:17;7.90;40.20
11009;DHT22;5557;51.670;7.788;2024-02-21T03:47:44;7.90;39.50
11009;DHT22;5557;51.670;7.788;2024-02-21T03:50:12;7.90;40.60
11009;DHT22;5557;51.670;7.788;2024-02-21T03:52:39;8.00;39.20
11009;DHT22;5557;51.670;7.788;2024-02-21T03:55:06;8.00;36.40
11009;DHT22;5557;51.670;7.788;2024-02-21T03:57:34;8.00;34.40
11009;DHT22;5557;51.670;7.788;2024-02-21T04:00:01;8.10;32.60
11009;DHT22;5557;51.670;7.788;2024-02-21T04:02:30;8.10;31.80
11009;DHT22;5557;51.670;7.788;2024-02-21T04:04:57;8.20;31.00
11009;DHT22;5557;51.670;7.788;2024-02-21T04:07:26;8.20;30.30
11009;DHT22;5557;51.670;7.788;2024-02-21T04:09:53;8.20;29.90
11009;DHT22;5557;51.670;7.788;2024-02-21T04:12:21;8.20;28.90
11009;DHT22;5557;51.670;7.788;2024-02-21T04:14:48;8.30;28.20
11009;DHT22;5557;51.670;7.788;2024-02-21T04:17:15;8.30;27.60
11009;DHT22;5557;51.670;7.788;2024-02-21T04:19:42;8.40;26.50
11009;DHT22;5557;51.670;7.788;2024-02-21T04:22:09;8.40;25.80
11009;DHT22;5557;51.670;7.788;2024-02-21T04:24:36;8.40;25.00
11009;DHT22;5557;51.670;7.788;2024-02-21T04:27:04;8.40;24.40
11009;DHT22;5557;51.670;7.788;2024-02-21T04:29:31;8.50;23.50
11009;DHT22;5557;51.670;7.788;2024-02-21T04:31:59;8.50;23.20
11009;DHT22;5557;51.670;7.788;2024-02-21T04:34:29;8.50;22.40
11009;DHT22;5557;51.670;7.788;2024-02-21T04:37:03;8.50;22.70
11009;DHT22;5557;51.670;7.788;2024-02-21T04:39:32;8.50;22.10
11009;DHT22;5557;51.670;7.788;2024-02-21T04:41:59;8.50;21.80
11009;DHT22;5557;51.670;7.788;2024-02-21T04:44:26;8.50;21.00
11009;DHT22;5557;51.670;7.788;2024-02-21T04:46:54;8.50;21.30
11009;DHT22;5557;51.670;7.788;2024-02-21T04:49:21;8.50;21.40
11009;DHT22;5557;51.670;7.788;2024-02-21T04:51:49;8.50;21.30
11009;DHT22;5557;51.670;7.788;2024-02-21T04:54:16;8.50;21.70
11009;DHT22;5557;51.670;7.788;2024-02-21T04:56:43;8.50;20.70
11009;DHT22;5557;51.670;7.788;2024-02-21T04:59:11;8.50;20.30
11009;DHT22;5557;51.670;7.788;2024-02-21T05:01:47;8.50;20.30
11009;DHT22;5557;51.670;7.788;2024-02-21T05:04:15;8.50;21.40
11009;DHT22;5557;51.670;7.788;2024-02-21T05:06:42;8.50;20.20
11009;DHT22;5557;51.670;7.788;2024-02-21T05:09:09;8.50;19.30
11009;DHT22;5557;51.670;7.788;2024-02-21T05:11:37;8.50;19.00
11009;DHT22;5557;51.670;7.788;2024-02-21T05:14:06;8.50;17.90
11009;DHT22;5557;51.670;7.788;2024-02-21T05:16:34;8.50;17.70
11009;DHT22;5557;51.670;7.788;2024-02-21T05:19:01;8.50;17.60
11009;DHT22;5557;51.670;7.788;2024-02-21T05:21:29;8.50;17.80
11009;DHT22;5557;51.670;7.788;2024-02-21T05:23:56;8.50;17.70
11009;DHT22;5557;51.670;7.788;2024-02-21T05:26:27;8.50;17.70
11009;DHT22;5557;51.670;7.788;2024-02-21T05:28:54;8.50;16.50
11009;DHT22;5557;51.670;7.788;2024-02-21T05:31:22;8.50;16.40
11009;DHT22;5557;51.670;7.788;2024-02-21T05:33:50;8.50;16.70
11009;DHT22;5557;51.670;7.788;2024-02-21T05:36:18;8.50;15.80
11009;DHT22;5557;51.670;7.788;2024-02-21T05:38:45;8.50;15.90
11009;DHT22;5557;51.670;7.788;2024-02-21T05:41:12;8.50;14.90
11009;DHT22;5557;51.670;7.788;2024-02-21T05:43:40;8.50;15.10
11009;DHT22;5557;51.670;7.788;2024-02-21T05:46:07;8.50;14.10
11009;DHT22;5557;51.670;7.788;2024-02-21T05:48:34;8.50;13.80
11009;DHT22;5557;51.670;7.788;2024-02-21T05:51:08;8.50;14.70
11009;DHT22;5557;51.670;7.788;2024-02-21T05:53:36;8.50;14.40
11009;DHT22;5557;51.670;7.788;2024-02-21T05:56:13;8.50;14.10
11009;DHT22;5557;51.670;7.788;2024-02-21T05:58:41;8.50;13.50
11009;DHT22;5557;51.670;7.788;2024-02-21T06:01:08;8.50;12.40
11009;DHT22;5557;51.670;7.788;2024-02-21T06:03:35;8.50;12.50
11009;DHT22;5557;51.670;7.788;2024-02-21T06:06:06;8.50;13.40
11009;DHT22;5557;51.670;7.788;2024-02-21T06:08:33;8.50;12.70
11009;DHT22;5557;51.670;7.788;2024-02-21T06:11:00;8.50;13.20
11009;DHT22;5557;51.670;7.788;2024-02-21T06:13:27;8.50;13.50
11009;DHT22;5557;51.670;7.788;2024-02-21T06:15:54;8.50;13.40
11009;DHT22;5557;51.670;7.788;2024-02-21T06:18:21;8.50;12.90
11009;DHT22;5557;51.670;7.788;2024-02-21T06:20:48;8.50;13.00
11009;DHT22;5557;51.670;7.788;2024-02-21T06:23:16;8.40;13.00
11009;DHT22;5557;51.670;7.788;2024-02-21T06:25:43;8.50;11.20
11009;DHT22;5557;51.670;7.788;2024-02-21T06:28:10;8.50;10.50
11009;DHT22;5557;51.670;7.788;2024-02-21T06:30:38;8.50;10.80
11009;DHT22;5557;51.670;7.788;2024-02-21T06:33:08;8.50;10.40
11009;DHT22;5557;51.670;7.788;2024-02-21T06:35:40;8.50;10.20
11009;DHT22;5557;51.670;7.788;2024-02-21T06:38:10;8.50;8.90
11009;DHT22;5557;51.670;7.788;2024-02-21T06:40:37;8.50;9.80
11009;DHT22;5557;51.670;7.788;2024-02-21T06:43:06;8.50;8.60
11009;DHT22;5557;51.670;7.788;2024-02-21T06:45:33;8.50;7.40
11009;DHT22;5557;51.670;7.788;2024-02-21T06:48:02;8.50;5.60
11009;DHT22;5557;51.670;7.788;2024-02-21T06:50:29;8.50;6.00
11009;DHT22;5557;51.670;7.788;2024-02-21T06:52:56;8.50;5.20
11009;DHT22;5557;51.670;7.788;2024-02-21T06:55:23;8.50;4.50
11009;DHT22;5557;51.670;7.788;2024-02-21T06:57:50;8.50;4.40
11009;DHT22;5557;51.670;7.788;2024-02-21T07:00:18;8.60;3.30
11009;DHT22;5557;51.670;7.788;2024-02-21T07:02:45;8.60;1.50
11009;DHT22;5557;51.670;7.788;2024-02-21T07:05:12;8.60;1.40
11009;DHT22;5557;51.670;7.788;2024-02-21T07:07:39;8.70;2.10
11009;DHT22;5557;51.670;7.788;2024-02-21T07:10:07;8.70;1.00
11009;DHT22;5557;51.670;7.788;2024-02-21T07:12:34;8.70;1.00
11009;DHT22;5557;51.670;7.788;2024-02-21T07:15:04;8.70;1.00
11009;DHT22;5557;51.670;7.788;2024-02-21T07:17:33;8.80;1.00
11009;DHT22;5557;51.670;7.788;2024-02-21T07:20:00;8.80;1.00
11009;DHT22;5557;51.670;7.788;2024-02-21T07:22:28;8.80;1.00
11009;DHT22;5557;51.670;7.788;2024-02-21T07:24:58;8.90;1.00
11009;DHT22;5557;51.670;7.788;2024-02-21T07:27:26;8.90;1.00
11009;DHT22;5557;51.670;7.788;2024-02-21T07:29:57;8.90;1.00
11009;DHT22;5557;51.670;7.788;2024-02-21T07:32:25;8.90;1.00
11009;DHT22;5557;51.670;7.788;2024-02-21T07:34:53;8.90;1.00
11009;DHT22;5557;51.670;7.788;2024-02-21T07:37:21;9.00;1.00
11009;DHT22;5557;51.670;7.788;2024-02-21T07:39:48;9.00;1.00
11009;DHT22;5557;51.670;7.788;2024-02-21T07:42:15;9.00;1.00
11009;DHT22;5557;51.670;7.788;2024-02-21T07:44:43;9.00;1.00
11009;DHT22;5557;51.670;7.788;2024-02-21T07:47:10;9.00;1.00
11009;DHT22;5557;51.670;7.788;2024-02-21T07:49:44;9.00;1.00
11009;DHT22;5557;51.670;7.788;2024-02-21T07:52:12;9.00;1.00
11009;DHT22;5557;51.670;7.788;2024-02-21T07:54:40;9.00;1.00
11009;DHT22;5557;51.670;7.788;2024-02-21T07:57:08;9.10;1.00
11009;DHT22;5557;51.670;7.788;2024-02-21T07:59:35;9.10;1.00
11009;DHT22;5557;51.670;7.788;2024-02-21T08:02:03;9.20;1.00
11009;DHT22;5557;51.670;7.788;2024-02-21T08:04:33;9.20;1.00
11009;DHT22;5557;51.670;7.788;2024-02-21T08:07:03;9.30;1.00
11009;DHT22;5557;51.670;7.788;2024-02-21T08:09:33;9.30;1.00
11009;DHT22;5557;51.670;7.788;2024-02-21T08:12:00;9.30;1.00
11009;DHT22;5557;51.670;7.788;2024-02-21T08:14:27;9.40;1.00
11009;DHT22;5557;51.670;7.788;2024-02-21T08:16:54;9.30;1.00
11009;DHT22;5557;51.670;7.788;2024-02-21T08:19:22;9.30;1.00
11009;DHT22;5557;51.670;7.788;2024-02-21T08:21:50;9.30;1.00
11009;DHT22;5557;51.670;7.788;2024-02-21T08:24:17;9.30;1.00
11009;DHT22;5557;51.670;7.788;2024-02-21T08:26:44;9.40;1.00
11009;DHT22;5557;51.670;7.788;2024-02-21T08:29:12;9.40;1.00
11009;DHT22;5557;51.670;7.788;2024-02-21T08:31:39;9.40;1.00
11009;DHT22;5557;51.670;7.788;2024-02-21T08:34:07;9.50;1.00
11009;DHT22;5557;51.670;7.788;2024-02-21T08:36:36;9.40;1.00
11009;DHT22;5557;51.670;7.788;2024-02-21T08:39:04;9.40;1.00
11009;DHT22;5557;51.670;7.788;2024-02-21T08:41:32;9.50;1.00
11009;DHT22;5557;51.670;7.788;2024-02-21T08:44:22;9.50;1.00
11009;DHT22;5557;51.670;7.788;2024-02-21T08:46:50;9.60;1.00
11009;DHT22;5557;51.670;7.788;2024-02-21T08:49:17;9.60;1.00
11009;DHT22;5557;51.670;7.788;2024-02-21T08:51:45;9.70;1.00
11009;DHT22;5557;51.670;7.788;2024-02-21T08:54:13;9.80;1.00
11009;DHT22;5557;51.670;7.788;2024-02-21T08:56:40;9.80;1.00
11009;DHT22;5557;51.670;7.788;2024-02-21T08:59:07;9.80;1.00
11009;DHT22;5557;51.670;7.788;2024-02-21T09:01:34;9.80;1.00
11009;DHT22;5557;51.670;7.788;2024-02-21T09:04:02;9.90;1.00
11009;DHT22;5557;51.670;7.788;2024-02-21T09:06:30;9.90;1.00
11009;DHT22;5557;51.670;7.788;2024-02-21T09:08:57;10.00;1.00
11009;DHT22;5557;51.670;7.788;2024-02-21T09:11:25;10.00;1.00
11009;DHT22;5557;51.670;7.788;2024-02-21T09:13:54;10.00;1.00
11009;DHT22;5557;51.670;7.788;2024-02-21T09:16:22;10.10;1.00
11009;DHT22;5557;51.670;7.788;2024-02-21T09:18:50;10.20;1.00
11009;DHT22;5557;51.670;7.788;2024-02-21T09:21:18;10.20;1.00
11009;DHT22;5557;51.670;7.788;2024-02-21T09:23:45;10.20;1.00
11009;DHT22;5557;51.670;7.788;2024-02-21T09:26:12;10.30;1.00
11009;DHT22;5557;51.670;7.788;2024-02-21T09:28:43;10.20;1.00
11009;DHT22;5557;51.670;7.788;2024-02-21T09:31:13;10.20;1.00
11009;DHT22;5557;51.670;7.788;2024-02-21T09:33:41;10.20;1.00
11009;DHT22;5557;51.670;7.788;2024-02-21T09:36:11;10.20;1.00
11009;DHT22;5557;51.670;7.788;2024-02-21T09:38:40;10.20;1.00
11009;DHT22;5557;51.670;7.788;2024-02-21T09:43:47;10.10;1.00
11009;DHT22;5557;51.670;7.788;2024-02-21T09:46:18;10.10;1.00
11009;DHT22;5557;51.670;7.788;2024-02-21T09:49:11;10.10;1.00
11009;DHT22;5557;51.670;7.788;2024-02-21T09:51:44;10.00;1.00
11009;DHT22;5557;51.670;7.788;2024-02-21T09:54:11;10.00;1.00
11009;DHT22;5557;51.670;7.788;2024-02-21T09:56:45;10.00;1.00
11009;DHT22;5557;51.670;7.788;2024-02-21T09:59:16;10.00;1.00
11009;DHT22;5557;51.670;7.788;2024-02-21T10:01:43;10.00;1.00
11009;DHT22;5557;51.670;7.788;2024-02-21T10:04:14;9.90;1.00
11009;DHT22;5557;51.670;7.788;2024-02-21T10:06:41;9.90;1.00
11009;DHT22;5557;51.670;7.788;2024-02-21T10:09:08;9.90;1.00
11009;DHT22;5557;51.670;7.788;2024-02-21T10:11:36;9.90;1.00
11009;DHT22;5557;51.670;7.788;2024-02-21T10:14:05;9.80;1.00
11009;DHT22;5557;51.670;7.788;2024-02-21T10:16:38;9.80;1.00
11009;DHT22;5557;51.670;7.788;2024-02-21T10:19:06;9.80;1.00
11009;DHT22;5557;51.670;7.788;2024-02-21T10:21:33;9.80;1.00
11009;DHT22;5557;51.670;7.788;2024-02-21T10:24:00;9.80;1.00
11009;DHT22;5557;51.670;7.788;2024-02-21T10:26:27;9.80;1.00
11009;DHT22;5557;51.670;7.788;2024-02-21T10:28:54;9.80;1.00
11009;DHT22;5557;51.670;7.788;2024-02-21T10:31:27;9.80;1.00
11009;DHT22;5557;51.670;7.788;2024-02-21T10:34:01;9.70;1.00
11009;DHT22;5557;51.670;7.788;2024-02-21T10:36:33;9.70;1.00
11009;DHT22;5557;51.670;7.788;2024-02-21T10:39:01;9.60;1.00
11009;DHT22;5557;51.670;7.788;2024-02-21T10:41:31;9.60;1.00
11009;DHT22;5557;51.670;7.788;2024-02-21T10:43:59;9.60;1.00
11009;DHT22;5557;51.670;7.788;2024-02-21T10:46:30;9.50;1.00
11009;DHT22;5557;51.670;7.788;2024-02-21T10:49:22;9.50;1.00
11009;DHT22;5557;51.670;7.788;2024-02-21T10:52:41;9.50;1.00
11009;DHT22;5557;51.670;7.788;2024-02-21T10:55:30;9.50;1.00
11009;DHT22;5557;51.670;7.788;2024-02-21T10:57:59;9.50;1.00
11009;DHT22;5557;51.670;7.788;2024-02-21T11:00:27;9.40;1.00
11009;DHT22;5557;51.670;7.788;2024-02-21T11:02:58;9.40;1.00
11009;DHT22;5557;51.670;7.788;2024-02-21T11:05:26;9.30;1.00
11009;DHT22;5557;51.670;7.788;2024-02-21T11:07:55;9.30;1.00
11009;DHT22;5557;51.670;7.788;2024-02-21T11:10:23;9.20;1.00
11009;DHT22;5557;51.670;7.788;2024-02-21T11:13:10;9.20;1.00
11009;DHT22;5557;51.670;7.788;2024-02-21T11:15:37;9.20;1.00
11009;DHT22;5557;51.670;7.788;2024-02-21T11:18:04;9.30;1.00
11009;DHT22;5557;51.670;7.788;2024-02-21T11:20:33;9.20;1.00
11009;DHT22;5557;51.670;7.788;2024-02-21T11:23:01;9.20;1.00
11009;DHT22;5557;51.670;7.788;2024-02-21T11:25:29;9.30;1.00
11009;DHT22;5557;51.670;7.788;2024-02-21T11:28:04;9.20;1.00
11009;DHT22;5557;51.670;7.788;2024-02-21T11:30:37;9.30;1.00
11009;DHT22;5557;51.670;7.788;2024-02-21T11:33:08;9.30;1.00
11009;DHT22;5557;51.670;7.788;2024-02-21T11:35:36;9.30;1.00
11009;DHT22;5557;51.670;7.788;2024-02-21T11:38:12;9.40;1.00
11009;DHT22;5557;51.670;7.788;2024-02-21T11:40:45;9.30;1.00
11009;DHT22;5557;51.670;7.788;2024-02-21T11:43:15;9.40;1.00
11009;DHT22;5557;51.670;7.788;2024-02-21T11:45:44;9.60;1.00
11009;DHT22;5557;51.670;7.788;2024-02-21T11:48:11;9.70;1.00
11009;DHT22;5557;51.670;7.788;2024-02-21T11:50:38;9.90;1.00
11009;DHT22;5557;51.670;7.788;2024-02-21T11:53:06;10.00;1.00
11009;DHT22;5557;51.670;7.788;2024-02-21T11:55:34;10.10;1.00
11009;DHT22;5557;51.670;7.788;2024-02-21T11:58:01;10.10;1.00
11009;DHT22;5557;51.670;7.788;2024-02-21T12:00:30;10.20;1.00
11009;DHT22;5557;51.670;7.788;2024-02-21T12:02:57;10.20;1.00
11009;DHT22;5557;51.670;7.788;2024-02-21T12:05:29;10.20;1.00
11009;DHT22;5557;51.670;7.788;2024-02-21T12:07:57;10.30;1.00
11009;DHT22;5557;51.670;7.788;2024-02-21T12:10:28;10.30;1.00
11009;DHT22;5557;51.670;7.788;2024-02-21T12:13:08;10.30;1.00
11009;DHT22;5557;51.670;7.788;2024-02-21T12:15:36;10.40;1.00
11009;DHT22;5557;51.670;7.788;2024-02-21T12:18:03;10.40;1.00
11009;DHT22;5557;51.670;7.788;2024-02-21T12:20:31;10.30;1.00
11009;DHT22;5557;51.670;7.788;2024-02-21T12:23:03;10.30;1.00
11009;DHT22;5557;51.670;7.788;2024-02-21T12:25:31;10.20;1.00
11009;DHT22;5557;51.670;7.788;2024-02-21T12:27:58;10.20;1.00
11009;DHT22;5557;51.670;7.788;2024-02-21T12:30:40;10.20;1.00
11009;DHT22;5557;51.670;7.788;2024-02-21T12:33:08;10.30;1.00
11009;DHT22;5557;51.670;7.788;2024-02-21T12:35:36;10.30;1.00
11009;DHT22;5557;51.670;7.788;2024-02-21T12:38:04;10.40;1.00
11009;DHT22;5557;51.670;7.788;2024-02-21T12:40:32;10.50;1.00
11009;DHT22;5557;51.670;7.788;2024-02-21T12:43:00;10.60;1.00
11009;DHT22;5557;51.670;7.788;2024-02-21T12:45:30;10.80;1.00
11009;DHT22;5557;51.670;7.788;2024-02-21T12:47:57;10.80;1.00
11009;DHT22;5557;51.670;7.788;2024-02-21T12:50:24;10.80;1.00
11009;DHT22;5557;51.670;7.788;2024-02-21T12:52:52;10.80;1.00
11009;DHT22;5557;51.670;7.788;2024-02-21T12:55:19;10.80;1.00
11009;DHT22;5557;51.670;7.788;2024-02-21T12:57:46;10.70;1.00
11009;DHT22;5557;51.670;7.788;2024-02-21T13:00:14;10.70;1.00
11009;DHT22;5557;51.670;7.788;2024-02-21T13:02:41;10.80;1.00
11009;DHT22;5557;51.670;7.788;2024-02-21T13:05:09;10.80;1.00
11009;DHT22;5557;51.670;7.788;2024-02-21T13:07:37;10.90;1.00
11009;DHT22;5557;51.670;7.788;2024-02-21T13:10:04;10.90;1.00
11009;DHT22;5557;51.670;7.788;2024-02-21T13:12:34;10.90;1.00
11009;DHT22;5557;51.670;7.788;2024-02-21T13:15:04;11.00;1.00
11009;DHT22;5557;51.670;7.788;2024-02-21T13:17:31;11.00;1.00
11009;DHT22;5557;51.670;7.788;2024-02-21T13:19:59;11.00;1.00
11009;DHT22;5557;51.670;7.788;2024-02-21T13:22:27;11.10;1.00
11009;DHT22;5557;51.670;7.788;2024-02-21T13:24:54;11.20;1.00
11009;DHT22;5557;51.670;7.788;2024-02-21T13:27:24;11.20;1.00
11009;DHT22;5557;51.670;7.788;2024-02-21T13:29:51;11.20;1.00
11009;DHT22;5557;51.670;7.788;2024-02-21T13:32:19;11.30;1.00
11009;DHT22;5557;51.670;7.788;2024-02-21T13:34:46;11.30;1.00
11009;DHT22;5557;51.670;7.788;2024-02-21T13:37:14;11.40;1.00
11009;DHT22;5557;51.670;7.788;2024-02-21T13:39:42;11.40;1.00
11009;DHT22;5557;51.670;7.788;2024-02-21T13:42:09;11.40;1.00
11009;DHT22;5557;51.670;7.788;2024-02-21T13:44:36;11.40;1.00
11009;DHT22;5557;51.670;7.788;2024-02-21T13:47:04;11.40;1.00
11009;DHT22;5557;51.670;7.788;2024-02-21T13:49:31;11.50;1.00
11009;DHT22;5557;51.670;7.788;2024-02-21T13:51:59;11.50;1.00
11009;DHT22;5557;51.670;7.788;2024-02-21T13:54:27;11.50;1.00
11009;DHT22;5557;51.670;7.788;2024-02-21T13:56:54;11.50;1.00
11009;DHT22;5557;51.670;7.788;2024-02-21T13:59:21;11.60;1.00
11009;DHT22;5557;51.670;7.788;2024-02-21T14:01:48;11.60;1.00
11009;DHT22;5557;51.670;7.788;2024-02-21T14:04:15;11.60;1.00
11009;DHT22;5557;51.670;7.788;2024-02-21T14:06:42;11.70;1.00
11009;DHT22;5557;51.670;7.788;2024-02-21T14:09:10;11.80;1.00
11009;DHT22;5557;51.670;7.788;2024-02-21T14:11:38;11.70;1.00
11009;DHT22;5557;51.670;7.788;2024-02-21T14:14:06;11.80;1.00
11009;DHT22;5557;51.670;7.788;2024-02-21T14:16:34;11.70;1.00
11009;DHT22;5557;51.670;7.788;2024-02-21T14:19:01;11.60;1.00
11009;DHT22;5557;51.670;7.788;2024-02-21T14:21:28;11.60;1.00
11009;DHT22;5557;51.670;7.788;2024-02-21T14:23:57;11.60;1.00
11009;DHT22;5557;51.670;7.788;2024-02-21T14:26:24;11.60;1.00
11009;DHT22;5557;51.670;7.788;2024-02-21T14:28:51;11.50;1.00
11009;DHT22;5557;51.670;7.788;2024-02-21T14:31:19;11.50;1.00
11009;DHT22;5557;51.670;7.788;2024-02-21T14:33:48;11.50;1.00
11009;DHT22;5557;51.670;7.788;2024-02-21T14:36:16;11.50;1.00
11009;DHT22;5557;51.670;7.788;2024-02-21T14:38:44;11.50;1.00
11009;DHT22;5557;51.670;7.788;2024-02-21T14:41:11;11.50;1.00
11009;DHT22;5557;51.670;7.788;2024-02-21T14:43:41;11.50;1.00
11009;DHT22;5557;51.670;7.788;2024-02-21T14:46:10;11.40;1.00
11009;DHT22;5557;51.670;7.788;2024-02-21T14:48:39;11.40;1.00
11009;DHT22;5557;51.670;7.788;2024-02-21T14:51:06;11.40;1.00
11009;DHT22;5557;51.670;7.788;2024-02-21T14:53:33;11.40;1.00
11009;DHT22;5557;51.670;7.788;2024-02-21T14:56:00;11.40;1.00
11009;DHT22;5557;51.670;7.788;2024-02-21T14:58:27;11.30;1.00
11009;DHT22;5557;51.670;7.788;2024-02-21T15:00:54;11.30;1.00
11009;DHT22;5557;51.670;7.788;2024-02-21T15:03:21;11.30;1.00
11009;DHT22;5557;51.670;7.788;2024-02-21T15:05:49;11.30;1.00
11009;DHT22;5557;51.670;7.788;2024-02-21T15:08:16;11.30;1.00
11009;DHT22;5557;51.670;7.788;2024-02-21T15:10:45;11.30;1.00
11009;DHT22;5557;51.670;7.788;2024-02-21T15:13:12;11.30;1.00
11009;DHT22;5557;51.670;7.788;2024-02-21T15:15:39;11.20;1.00
11009;DHT22;5557;51.670;7.788;2024-02-21T15:18:06;11.10;1.00
11009;DHT22;5557;51.670;7.788;2024-02-21T15:20:34;11.10;1.00
11009;DHT22;5557;51.670;7.788;2024-02-21T15:23:01;11.10;1.00
11009;DHT22;5557;51.670;7.788;2024-02-21T15:25:36;11.10;1.00
11009;DHT22;5557;51.670;7.788;2024-02-21T15:28:04;11.10;1.00
11009;DHT22;5557;51.670;7.788;2024-02-21T15:30:33;11.10;1.00
11009;DHT22;5557;51.670;7.788;2024-02-21T15:33:02;11.10;1.00
11009;DHT22;5557;51.670;7.788;2024-02-21T15:35:34;11.10;1.00
11009;DHT22;5557;51.670;7.788;2024-02-21T15:38:02;11.10;1.00
11009;DHT22;5557;51.670;7.788;2024-02-21T15:40:40;11.00;1.00
11009;DHT22;5557;51.670;7.788;2024-02-21T15:43:08;11.00;1.00
11009;DHT22;5557;51.670;7.788;2024-02-21T15:45:35;11.00;1.00
11009;DHT22;5557;51.670;7.788;2024-02-21T15:48:03;11.00;1.00
11009;DHT22;5557;51.670;7.788;2024-02-21T15:50:32;10.90;1.00
11009;DHT22;5557;51.670;7.788;2024-02-21T15:53:03;11.00;1.00
11009;DHT22;5557;51.670;7.788;2024-02-21T15:55:30;11.00;1.00
11009;DHT22;5557;51.670;7.788;2024-02-21T15:57:57;10.90;1.00
11009;DHT22;5557;51.670;7.788;2024-02-21T16:00:24;10.90;1.00
11009;DHT22;5557;51.670;7.788;2024-02-21T16:02:51;10.90;1.00
11009;DHT22;5557;51.670;7.788;2024-02-21T16:05:18;10.90;1.00
11009;DHT22;5557;51.670;7.788;2024-02-21T16:07:45;10.80;1.00
11009;DHT22;5557;51.670;7.788;2024-02-21T16:10:13;10.80;1.00
11009;DHT22;5557;51.670;7.788;2024-02-21T16:12:40;10.80;1.00
11009;DHT22;5557;51.670;7.788;2024-02-21T16:15:08;10.70;1.00
11009;DHT22;5557;51.670;7.788;2024-02-21T16:17:38;10.70;1.00
11009;DHT22;5557;51.670;7.788;2024-02-21T16:20:07;10.70;1.00
11009;DHT22;5557;51.670;7.788;2024-02-21T16:22:36;10.60;1.00
11009;DHT22;5557;51.670;7.788;2024-02-21T16:25:04;10.60;1.00